sensor_id;sensor_type;location;lat;lon;timestamp;P1;durP1;ratioP1;P2;durP2;ratioP2
69594;SDS011;56800;52.142;5.364;2023-04-01T00:02:06;32.78;;;10.20;;
69594;SDS011;56800;52.142;5.364;2023-04-01T00:04:33;18.95;;;8.32;;
69594;SDS011;56800;52.142;5.364;2023-04-01T00:07:00;28.55;;;9.45;;
69594;SDS011;56800;52.142;5.364;2023-04-01T00:09:27;28.63;;;9.05;;
69594;SDS011;56800;52.142;5.364;2023-04-01T00:11:55;32.67;;;9.40;;
69594;SDS011;56800;52.142;5.364;2023-04-01T00:14:21;19.23;;;8.10;;
69594;SDS011;56800;52.142;5.364;2023-04-01T00:16:48;27.27;;;9.70;;
69594;SDS011;56800;52.142;5.364;2023-04-01T00:19:15;31.50;;;9.65;;
69594;SDS011;56800;52.142;5.364;2023-04-01T00:21:42;24.63;;;9.77;;
69594;SDS011;56800;52.142;5.364;2023-04-01T00:24:08;30.73;;;10.03;;
69594;SDS011;56800;52.142;5.364;2023-04-01T00:26:35;29.88;;;9.98;;
69594;SDS011;56800;52.142;5.364;2023-04-01T00:29:02;27.40;;;9.35;;
69594;SDS011;56800;52.142;5.364;2023-04-01T00:31:28;35.85;;;9.93;;
69594;SDS011;56800;52.142;5.364;2023-04-01T00:33:56;33.22;;;9.90;;
69594;SDS011;56800;52.142;5.364;2023-04-01T00:36:23;30.40;;;8.10;;
69594;SDS011;56800;52.142;5.364;2023-04-01T00:38:50;26.67;;;7.80;;
69594;SDS011;56800;52.142;5.364;2023-04-01T00:41:18;24.33;;;7.38;;
69594;SDS011;56800;52.142;5.364;2023-04-01T00:43:48;20.50;;;7.00;;
69594;SDS011;56800;52.142;5.364;2023-04-01T00:46:17;23.88;;;6.35;;
69594;SDS011;56800;52.142;5.364;2023-04-01T00:48:45;22.30;;;6.60;;
69594;SDS011;56800;52.142;5.364;2023-04-01T00:51:25;29.90;;;7.30;;
69594;SDS011;56800;52.142;5.364;2023-04-01T00:53:55;23.80;;;7.38;;
69594;SDS011;56800;52.142;5.364;2023-04-01T00:56:24;19.58;;;6.97;;
69594;SDS011;56800;52.142;5.364;2023-04-01T00:58:58;24.52;;;8.68;;
69594;SDS011;56800;52.142;5.364;2023-04-01T01:01:34;19.07;;;7.63;;
69594;SDS011;56800;52.142;5.364;2023-04-01T01:04:01;22.23;;;7.10;;
69594;SDS011;56800;52.142;5.364;2023-04-01T01:06:36;17.25;;;7.50;;
69594;SDS011;56800;52.142;5.364;2023-04-01T01:09:24;21.27;;;8.27;;
69594;SDS011;56800;52.142;5.364;2023-04-01T01:12:13;23.00;;;8.57;;
69594;SDS011;56800;52.142;5.364;2023-04-01T01:14:46;23.70;;;8.17;;
69594;SDS011;56800;52.142;5.364;2023-04-01T01:17:40;20.90;;;8.23;;
69594;SDS011;56800;52.142;5.364;2023-04-01T01:20:14;23.58;;;9.13;;
69594;SDS011;56800;52.142;5.364;2023-04-01T01:37:20;21.20;;;5.35;;
69594;SDS011;56800;52.142;5.364;2023-04-01T01:39:55;13.00;;;5.45;;
69594;SDS011;56800;52.142;5.364;2023-04-01T01:42:26;12.17;;;5.37;;
69594;SDS011;56800;52.142;5.364;2023-04-01T01:44:55;11.68;;;4.20;;
69594;SDS011;56800;52.142;5.364;2023-04-01T01:47:25;11.98;;;4.68;;
69594;SDS011;56800;52.142;5.364;2023-04-01T01:49:54;10.18;;;5.07;;
69594;SDS011;56800;52.142;5.364;2023-04-01T01:52:22;12.48;;;4.28;;
69594;SDS011;56800;52.142;5.364;2023-04-01T01:54:50;10.30;;;4.43;;
69594;SDS011;56800;52.142;5.364;2023-04-01T01:57:39;17.33;;;4.15;;
69594;SDS011;56800;52.142;5.364;2023-04-01T02:00:07;8.75;;;3.90;;
69594;SDS011;56800;52.142;5.364;2023-04-01T02:02:40;10.65;;;3.70;;
69594;SDS011;56800;52.142;5.364;2023-04-01T02:05:09;8.32;;;3.50;;
69594;SDS011;56800;52.142;5.364;2023-04-01T02:07:40;9.67;;;3.67;;
69594;SDS011;56800;52.142;5.364;2023-04-01T02:10:10;10.13;;;3.92;;
69594;SDS011;56800;52.142;5.364;2023-04-01T02:12:37;8.50;;;3.70;;
69594;SDS011;56800;52.142;5.364;2023-04-01T02:15:06;7.35;;;3.13;;
69594;SDS011;56800;52.142;5.364;2023-04-01T02:17:38;9.40;;;3.65;;
69594;SDS011;56800;52.142;5.364;2023-04-01T02:20:10;7.30;;;3.03;;
69594;SDS011;56800;52.142;5.364;2023-04-01T02:22:45;7.20;;;2.90;;
69594;SDS011;56800;52.142;5.364;2023-04-01T02:25:27;7.60;;;3.42;;
69594;SDS011;56800;52.142;5.364;2023-04-01T02:28:00;7.88;;;3.50;;
69594;SDS011;56800;52.142;5.364;2023-04-01T02:30:29;7.63;;;3.15;;
69594;SDS011;56800;52.142;5.364;2023-04-01T02:32:59;11.30;;;3.73;;
69594;SDS011;56800;52.142;5.364;2023-04-01T02:35:27;8.48;;;3.53;;
69594;SDS011;56800;52.142;5.364;2023-04-01T02:37:54;7.47;;;3.78;;
69594;SDS011;56800;52.142;5.364;2023-04-01T02:40:21;7.95;;;3.63;;
69594;SDS011;56800;52.142;5.364;2023-04-01T02:42:48;8.07;;;3.65;;
69594;SDS011;56800;52.142;5.364;2023-04-01T02:45:15;12.97;;;3.93;;
69594;SDS011;56800;52.142;5.364;2023-04-01T02:47:42;11.20;;;3.58;;
69594;SDS011;56800;52.142;5.364;2023-04-01T02:50:09;9.38;;;3.38;;
69594;SDS011;56800;52.142;5.364;2023-04-01T02:52:36;8.20;;;3.40;;
69594;SDS011;56800;52.142;5.364;2023-04-01T02:55:03;9.00;;;3.92;;
69594;SDS011;56800;52.142;5.364;2023-04-01T02:57:32;9.27;;;3.13;;
69594;SDS011;56800;52.142;5.364;2023-04-01T02:59:59;8.60;;;3.33;;
69594;SDS011;56800;52.142;5.364;2023-04-01T03:02:25;8.02;;;2.85;;
69594;SDS011;56800;52.142;5.364;2023-04-01T03:04:52;10.63;;;3.15;;
69594;SDS011;56800;52.142;5.364;2023-04-01T03:07:19;5.85;;;3.13;;
69594;SDS011;56800;52.142;5.364;2023-04-01T03:09:46;5.07;;;2.60;;
69594;SDS011;56800;52.142;5.364;2023-04-01T03:12:12;6.60;;;2.90;;
69594;SDS011;56800;52.142;5.364;2023-04-01T03:14:39;7.53;;;3.00;;
69594;SDS011;56800;52.142;5.364;2023-04-01T03:17:06;5.47;;;2.67;;
69594;SDS011;56800;52.142;5.364;2023-04-01T03:19:32;8.20;;;3.10;;
69594;SDS011;56800;52.142;5.364;2023-04-01T03:21:59;16.30;;;3.33;;
69594;SDS011;56800;52.142;5.364;2023-04-01T03:24:26;8.35;;;3.72;;
69594;SDS011;56800;52.142;5.364;2023-04-01T03:26:53;10.27;;;4.22;;
69594;SDS011;56800;52.142;5.364;2023-04-01T03:29:19;9.63;;;4.93;;
69594;SDS011;56800;52.142;5.364;2023-04-01T03:31:46;16.67;;;5.68;;
69594;SDS011;56800;52.142;5.364;2023-04-01T03:34:13;12.97;;;6.10;;
69594;SDS011;56800;52.142;5.364;2023-04-01T03:36:40;11.40;;;6.35;;
69594;SDS011;56800;52.142;5.364;2023-04-01T03:39:06;14.68;;;6.78;;
69594;SDS011;56800;52.142;5.364;2023-04-01T03:41:34;12.57;;;6.93;;
69594;SDS011;56800;52.142;5.364;2023-04-01T03:44:03;15.98;;;7.75;;
69594;SDS011;56800;52.142;5.364;2023-04-01T03:46:30;16.00;;;7.70;;
69594;SDS011;56800;52.142;5.364;2023-04-01T03:48:57;16.10;;;8.57;;
69594;SDS011;56800;52.142;5.364;2023-04-01T03:51:23;18.98;;;8.48;;
69594;SDS011;56800;52.142;5.364;2023-04-01T03:53:50;18.35;;;8.95;;
69594;SDS011;56800;52.142;5.364;2023-04-01T03:56:17;16.23;;;8.07;;
69594;SDS011;56800;52.142;5.364;2023-04-01T03:58:43;20.87;;;8.73;;
69594;SDS011;56800;52.142;5.364;2023-04-01T04:01:18;19.90;;;8.70;;
69594;SDS011;56800;52.142;5.364;2023-04-01T04:03:47;24.25;;;9.20;;
69594;SDS011;56800;52.142;5.364;2023-04-01T04:06:16;17.63;;;8.82;;
69594;SDS011;56800;52.142;5.364;2023-04-01T04:08:45;15.75;;;7.80;;
69594;SDS011;56800;52.142;5.364;2023-04-01T04:11:12;18.53;;;7.97;;
69594;SDS011;56800;52.142;5.364;2023-04-01T04:13:39;15.35;;;7.78;;
69594;SDS011;56800;52.142;5.364;2023-04-01T04:16:05;25.25;;;8.70;;
69594;SDS011;56800;52.142;5.364;2023-04-01T04:18:33;24.23;;;7.60;;
69594;SDS011;56800;52.142;5.364;2023-04-01T04:21:00;14.35;;;7.30;;
69594;SDS011;56800;52.142;5.364;2023-04-01T04:23:27;18.00;;;7.37;;
69594;SDS011;56800;52.142;5.364;2023-04-01T04:25:59;14.57;;;6.97;;
69594;SDS011;56800;52.142;5.364;2023-04-01T04:28:28;13.18;;;6.95;;
69594;SDS011;56800;52.142;5.364;2023-04-01T04:30:55;19.38;;;7.30;;
69594;SDS011;56800;52.142;5.364;2023-04-01T04:33:22;13.80;;;7.47;;
69594;SDS011;56800;52.142;5.364;2023-04-01T04:35:49;16.50;;;8.13;;
69594;SDS011;56800;52.142;5.364;2023-04-01T04:38:16;16.90;;;7.55;;
69594;SDS011;56800;52.142;5.364;2023-04-01T04:40:43;13.65;;;6.85;;
69594;SDS011;56800;52.142;5.364;2023-04-01T04:43:11;14.88;;;6.78;;
69594;SDS011;56800;52.142;5.364;2023-04-01T04:45:39;13.98;;;6.32;;
69594;SDS011;56800;52.142;5.364;2023-04-01T04:48:09;13.03;;;5.60;;
69594;SDS011;56800;52.142;5.364;2023-04-01T04:50:37;12.02;;;5.32;;
69594;SDS011;56800;52.142;5.364;2023-04-01T04:53:06;16.42;;;5.10;;
69594;SDS011;56800;52.142;5.364;2023-04-01T04:55:32;10.05;;;4.75;;
69594;SDS011;56800;52.142;5.364;2023-04-01T04:57:59;15.73;;;5.15;;
69594;SDS011;56800;52.142;5.364;2023-04-01T05:00:26;10.80;;;5.10;;
69594;SDS011;56800;52.142;5.364;2023-04-01T05:02:53;11.35;;;4.93;;
69594;SDS011;56800;52.142;5.364;2023-04-01T05:05:19;16.35;;;5.15;;
69594;SDS011;56800;52.142;5.364;2023-04-01T05:07:46;10.02;;;4.70;;
69594;SDS011;56800;52.142;5.364;2023-04-01T05:10:13;15.13;;;5.38;;
69594;SDS011;56800;52.142;5.364;2023-04-01T05:12:39;15.93;;;6.30;;
69594;SDS011;56800;52.142;5.364;2023-04-01T05:15:07;12.25;;;6.65;;
69594;SDS011;56800;52.142;5.364;2023-04-01T05:17:34;14.30;;;6.90;;
69594;SDS011;56800;52.142;5.364;2023-04-01T05:20:01;13.00;;;6.70;;
69594;SDS011;56800;52.142;5.364;2023-04-01T05:22:28;12.15;;;6.45;;
69594;SDS011;56800;52.142;5.364;2023-04-01T05:24:55;12.47;;;6.50;;
69594;SDS011;56800;52.142;5.364;2023-04-01T05:27:22;12.00;;;6.65;;
69594;SDS011;56800;52.142;5.364;2023-04-01T05:29:49;11.85;;;6.38;;
69594;SDS011;56800;52.142;5.364;2023-04-01T05:32:15;14.43;;;6.25;;
69594;SDS011;56800;52.142;5.364;2023-04-01T05:34:42;12.73;;;5.60;;
69594;SDS011;56800;52.142;5.364;2023-04-01T05:37:09;9.77;;;5.40;;
69594;SDS011;56800;52.142;5.364;2023-04-01T05:39:38;10.50;;;5.00;;
69594;SDS011;56800;52.142;5.364;2023-04-01T05:42:06;13.60;;;5.18;;
69594;SDS011;56800;52.142;5.364;2023-04-01T05:44:34;13.98;;;5.32;;
69594;SDS011;56800;52.142;5.364;2023-04-01T05:47:01;12.20;;;5.10;;
69594;SDS011;56800;52.142;5.364;2023-04-01T05:49:30;8.20;;;4.57;;
69594;SDS011;56800;52.142;5.364;2023-04-01T05:51:57;12.50;;;4.88;;
69594;SDS011;56800;52.142;5.364;2023-04-01T05:54:23;9.57;;;4.90;;
69594;SDS011;56800;52.142;5.364;2023-04-01T05:56:50;7.40;;;4.63;;
69594;SDS011;56800;52.142;5.364;2023-04-01T05:59:17;10.73;;;4.80;;
69594;SDS011;56800;52.142;5.364;2023-04-01T06:01:44;8.93;;;4.43;;
69594;SDS011;56800;52.142;5.364;2023-04-01T06:04:14;11.13;;;4.50;;
69594;SDS011;56800;52.142;5.364;2023-04-01T06:06:43;14.80;;;4.95;;
69594;SDS011;56800;52.142;5.364;2023-04-01T06:19:57;10.80;;;4.80;;
69594;SDS011;56800;52.142;5.364;2023-04-01T06:25:45;10.52;;;5.68;;
69594;SDS011;56800;52.142;5.364;2023-04-01T06:28:41;11.73;;;5.00;;
69594;SDS011;56800;52.142;5.364;2023-04-01T06:34:00;9.73;;;4.75;;
69594;SDS011;56800;52.142;5.364;2023-04-01T06:39:26;6.95;;;4.00;;
69594;SDS011;56800;52.142;5.364;2023-04-01T06:53:07;4.72;;;3.10;;
69594;SDS011;56800;52.142;5.364;2023-04-01T06:55:57;6.80;;;2.70;;
69594;SDS011;56800;52.142;5.364;2023-04-01T06:58:37;6.88;;;3.22;;
69594;SDS011;56800;52.142;5.364;2023-04-01T07:01:16;4.88;;;2.85;;
69594;SDS011;56800;52.142;5.364;2023-04-01T07:03:53;4.88;;;2.55;;
69594;SDS011;56800;52.142;5.364;2023-04-01T07:08:57;6.30;;;3.33;;
69594;SDS011;56800;52.142;5.364;2023-04-01T07:11:34;6.60;;;3.50;;
69594;SDS011;56800;52.142;5.364;2023-04-01T07:14:20;5.90;;;3.95;;
69594;SDS011;56800;52.142;5.364;2023-04-01T07:16:56;6.10;;;3.83;;
69594;SDS011;56800;52.142;5.364;2023-04-01T07:19:45;7.35;;;4.15;;
69594;SDS011;56800;52.142;5.364;2023-04-01T07:25:20;8.60;;;4.22;;
69594;SDS011;56800;52.142;5.364;2023-04-01T07:27:52;7.05;;;4.60;;
69594;SDS011;56800;52.142;5.364;2023-04-01T07:30:23;8.30;;;3.90;;
69594;SDS011;56800;52.142;5.364;2023-04-01T07:32:59;8.02;;;4.20;;
69594;SDS011;56800;52.142;5.364;2023-04-01T07:36:05;6.27;;;3.90;;
69594;SDS011;56800;52.142;5.364;2023-04-01T07:38:59;6.50;;;3.60;;
69594;SDS011;56800;52.142;5.364;2023-04-01T08:06:45;11.63;;;5.20;;
69594;SDS011;56800;52.142;5.364;2023-04-01T08:12:02;11.98;;;5.47;;
69594;SDS011;56800;52.142;5.364;2023-04-01T08:14:56;10.65;;;5.95;;
69594;SDS011;56800;52.142;5.364;2023-04-01T08:22:57;16.13;;;6.55;;
69594;SDS011;56800;52.142;5.364;2023-04-01T08:25:48;13.63;;;5.80;;
69594;SDS011;56800;52.142;5.364;2023-04-01T08:28:32;15.43;;;6.32;;
69594;SDS011;56800;52.142;5.364;2023-04-01T08:33:44;11.35;;;5.78;;
69594;SDS011;56800;52.142;5.364;2023-04-01T08:36:17;12.23;;;5.82;;
69594;SDS011;56800;52.142;5.364;2023-04-01T08:47:30;11.27;;;4.97;;
69594;SDS011;56800;52.142;5.364;2023-04-01T08:50:26;11.57;;;5.13;;
69594;SDS011;56800;52.142;5.364;2023-04-01T08:58:45;10.13;;;5.03;;
69594;SDS011;56800;52.142;5.364;2023-04-01T09:04:05;7.53;;;4.80;;
69594;SDS011;56800;52.142;5.364;2023-04-01T09:12:53;7.73;;;4.57;;
69594;SDS011;56800;52.142;5.364;2023-04-01T09:41:21;8.10;;;3.90;;
69594;SDS011;56800;52.142;5.364;2023-04-01T09:46:53;6.93;;;4.25;;
69594;SDS011;56800;52.142;5.364;2023-04-01T09:49:30;7.30;;;4.93;;
69594;SDS011;56800;52.142;5.364;2023-04-01T09:55:06;8.60;;;6.03;;
69594;SDS011;56800;52.142;5.364;2023-04-01T09:58:30;11.15;;;6.30;;
69594;SDS011;56800;52.142;5.364;2023-04-01T10:01:17;11.27;;;6.82;;
69594;SDS011;56800;52.142;5.364;2023-04-01T10:21:15;9.68;;;6.90;;
69594;SDS011;56800;52.142;5.364;2023-04-01T10:33:10;16.42;;;7.30;;
69594;SDS011;56800;52.142;5.364;2023-04-01T10:36:15;10.13;;;6.93;;
69594;SDS011;56800;52.142;5.364;2023-04-01T10:45:19;9.07;;;6.07;;
69594;SDS011;56800;52.142;5.364;2023-04-01T10:50:41;10.52;;;6.28;;
69594;SDS011;56800;52.142;5.364;2023-04-01T11:12:37;4.53;;;3.28;;
69594;SDS011;56800;52.142;5.364;2023-04-01T11:24:24;5.55;;;2.55;;
69594;SDS011;56800;52.142;5.364;2023-04-01T11:27:30;3.95;;;2.85;;
69594;SDS011;56800;52.142;5.364;2023-04-01T11:32:57;4.45;;;3.10;;
69594;SDS011;56800;52.142;5.364;2023-04-01T11:35:52;4.50;;;3.20;;
69594;SDS011;56800;52.142;5.364;2023-04-01T11:41:27;4.10;;;3.30;;
69594;SDS011;56800;52.142;5.364;2023-04-01T11:44:15;4.70;;;3.28;;
69594;SDS011;56800;52.142;5.364;2023-04-01T12:01:42;7.00;;;4.43;;
69594;SDS011;56800;52.142;5.364;2023-04-01T12:04:18;7.60;;;5.40;;
69594;SDS011;56800;52.142;5.364;2023-04-01T12:07:00;8.48;;;5.47;;
69594;SDS011;56800;52.142;5.364;2023-04-01T12:12:25;8.88;;;5.78;;
69594;SDS011;56800;52.142;5.364;2023-04-01T12:15:30;7.72;;;6.07;;
69594;SDS011;56800;52.142;5.364;2023-04-01T12:20:50;9.30;;;6.20;;
69594;SDS011;56800;52.142;5.364;2023-04-01T12:23:29;8.90;;;6.78;;
69594;SDS011;56800;52.142;5.364;2023-04-01T12:32:31;9.80;;;7.03;;
69594;SDS011;56800;52.142;5.364;2023-04-01T12:37:58;13.10;;;7.95;;
69594;SDS011;56800;52.142;5.364;2023-04-01T12:45:45;13.00;;;9.33;;
69594;SDS011;56800;52.142;5.364;2023-04-01T12:51:44;16.67;;;9.60;;
69594;SDS011;56800;52.142;5.364;2023-04-01T12:54:40;15.30;;;9.45;;
69594;SDS011;56800;52.142;5.364;2023-04-01T12:57:28;12.93;;;9.05;;
69594;SDS011;56800;52.142;5.364;2023-04-01T13:03:14;12.02;;;8.48;;
69594;SDS011;56800;52.142;5.364;2023-04-01T13:17:25;10.80;;;7.35;;
69594;SDS011;56800;52.142;5.364;2023-04-01T13:20:06;9.55;;;7.38;;
69594;SDS011;56800;52.142;5.364;2023-04-01T13:28:14;11.90;;;6.90;;
69594;SDS011;56800;52.142;5.364;2023-04-01T13:30:53;9.52;;;6.88;;
69594;SDS011;56800;52.142;5.364;2023-04-01T13:44:29;8.15;;;4.88;;
69594;SDS011;56800;52.142;5.364;2023-04-01T13:55:25;6.40;;;4.30;;
69594;SDS011;56800;52.142;5.364;2023-04-01T14:00:46;10.25;;;5.30;;
69594;SDS011;56800;52.142;5.364;2023-04-01T14:03:50;7.00;;;5.38;;
69594;SDS011;56800;52.142;5.364;2023-04-01T14:06:29;9.25;;;4.88;;
69594;SDS011;56800;52.142;5.364;2023-04-01T14:14:25;11.35;;;5.75;;
69594;SDS011;56800;52.142;5.364;2023-04-01T14:25:27;7.20;;;5.18;;
69594;SDS011;56800;52.142;5.364;2023-04-01T14:33:25;8.73;;;5.43;;
69594;SDS011;56800;52.142;5.364;2023-04-01T14:36:21;6.03;;;4.50;;
69594;SDS011;56800;52.142;5.364;2023-04-01T14:50:44;9.70;;;4.60;;
69594;SDS011;56800;52.142;5.364;2023-04-01T14:55:52;6.60;;;4.90;;
69594;SDS011;56800;52.142;5.364;2023-04-01T14:58:22;6.55;;;4.55;;
69594;SDS011;56800;52.142;5.364;2023-04-01T15:01:17;7.22;;;4.10;;
69594;SDS011;56800;52.142;5.364;2023-04-01T15:03:55;5.43;;;4.00;;
69594;SDS011;56800;52.142;5.364;2023-04-01T15:12:18;5.65;;;3.83;;
69594;SDS011;56800;52.142;5.364;2023-04-01T15:17:55;5.53;;;3.93;;
69594;SDS011;56800;52.142;5.364;2023-04-01T15:34:32;5.40;;;3.90;;
69594;SDS011;56800;52.142;5.364;2023-04-01T15:40:14;9.35;;;4.07;;
69594;SDS011;56800;52.142;5.364;2023-04-01T15:45:57;4.47;;;3.57;;
69594;SDS011;56800;52.142;5.364;2023-04-01T16:02:56;4.25;;;2.85;;
69594;SDS011;56800;52.142;5.364;2023-04-01T16:05:55;5.97;;;3.35;;
69594;SDS011;56800;52.142;5.364;2023-04-01T16:20:40;3.65;;;2.70;;
69594;SDS011;56800;52.142;5.364;2023-04-01T16:23:12;4.28;;;2.95;;
69594;SDS011;56800;52.142;5.364;2023-04-01T16:26:09;3.90;;;2.90;;
69594;SDS011;56800;52.142;5.364;2023-04-01T16:28:47;4.37;;;2.67;;
69594;SDS011;56800;52.142;5.364;2023-04-01T16:31:29;3.22;;;2.63;;
69594;SDS011;56800;52.142;5.364;2023-04-01T16:34:24;3.90;;;3.00;;
69594;SDS011;56800;52.142;5.364;2023-04-01T16:37:19;3.90;;;2.72;;
69594;SDS011;56800;52.142;5.364;2023-04-01T16:40:01;3.70;;;2.85;;
69594;SDS011;56800;52.142;5.364;2023-04-01T16:45:51;4.65;;;2.53;;
69594;SDS011;56800;52.142;5.364;2023-04-01T16:51:53;7.63;;;3.40;;
69594;SDS011;56800;52.142;5.364;2023-04-01T16:57:25;6.67;;;4.17;;
69594;SDS011;56800;52.142;5.364;2023-04-01T17:03:08;5.45;;;4.00;;
69594;SDS011;56800;52.142;5.364;2023-04-01T17:11:27;5.33;;;3.20;;
69594;SDS011;56800;52.142;5.364;2023-04-01T17:14:17;7.85;;;3.53;;
69594;SDS011;56800;52.142;5.364;2023-04-01T17:16:56;4.65;;;3.63;;
69594;SDS011;56800;52.142;5.364;2023-04-01T17:19:42;4.40;;;3.30;;
69594;SDS011;56800;52.142;5.364;2023-04-01T17:28:30;6.43;;;3.63;;
69594;SDS011;56800;52.142;5.364;2023-04-01T17:31:29;6.05;;;3.42;;
69594;SDS011;56800;52.142;5.364;2023-04-01T17:37:11;5.85;;;3.03;;
69594;SDS011;56800;52.142;5.364;2023-04-01T17:42:40;5.85;;;3.15;;
69594;SDS011;56800;52.142;5.364;2023-04-01T17:48:05;4.90;;;3.58;;
69594;SDS011;56800;52.142;5.364;2023-04-01T17:53:46;7.33;;;3.37;;
69594;SDS011;56800;52.142;5.364;2023-04-01T17:56:34;5.07;;;3.53;;
69594;SDS011;56800;52.142;5.364;2023-04-01T17:59:37;5.45;;;3.47;;
69594;SDS011;56800;52.142;5.364;2023-04-01T18:08:12;7.67;;;3.40;;
69594;SDS011;56800;52.142;5.364;2023-04-01T18:13:36;4.55;;;3.25;;
69594;SDS011;56800;52.142;5.364;2023-04-01T18:16:18;4.20;;;3.47;;
69594;SDS011;56800;52.142;5.364;2023-04-01T18:25:15;5.57;;;4.20;;
69594;SDS011;56800;52.142;5.364;2023-04-01T18:28:13;4.72;;;3.88;;
69594;SDS011;56800;52.142;5.364;2023-04-01T18:33:34;5.35;;;4.68;;
69594;SDS011;56800;52.142;5.364;2023-04-01T18:38:54;5.78;;;4.78;;
69594;SDS011;56800;52.142;5.364;2023-04-01T18:50:07;6.53;;;5.00;;
69594;SDS011;56800;52.142;5.364;2023-04-01T18:52:40;6.57;;;4.78;;
69594;SDS011;56800;52.142;5.364;2023-04-01T18:55:23;7.38;;;4.78;;
69594;SDS011;56800;52.142;5.364;2023-04-01T18:58:12;5.68;;;4.63;;
69594;SDS011;56800;52.142;5.364;2023-04-01T19:01:02;7.50;;;5.00;;
69594;SDS011;56800;52.142;5.364;2023-04-01T19:03:41;5.37;;;4.03;;
69594;SDS011;56800;52.142;5.364;2023-04-01T19:06:51;6.13;;;4.50;;
69594;SDS011;56800;52.142;5.364;2023-04-01T19:09:23;5.97;;;4.63;;
69594;SDS011;56800;52.142;5.364;2023-04-01T19:11:59;5.10;;;4.40;;
69594;SDS011;56800;52.142;5.364;2023-04-01T19:15:00;5.32;;;4.20;;
69594;SDS011;56800;52.142;5.364;2023-04-01T19:25:55;5.75;;;4.45;;
69594;SDS011;56800;52.142;5.364;2023-04-01T19:30:56;8.20;;;4.47;;
69594;SDS011;56800;52.142;5.364;2023-04-01T19:36:26;10.07;;;5.20;;
69594;SDS011;56800;52.142;5.364;2023-04-01T19:39:10;8.30;;;4.57;;
69594;SDS011;56800;52.142;5.364;2023-04-01T19:41:59;6.85;;;4.70;;
69594;SDS011;56800;52.142;5.364;2023-04-01T19:50:20;8.00;;;6.07;;
69594;SDS011;56800;52.142;5.364;2023-04-01T19:52:49;9.90;;;5.35;;
69594;SDS011;56800;52.142;5.364;2023-04-01T20:00:59;8.38;;;5.70;;
69594;SDS011;56800;52.142;5.364;2023-04-01T20:06:18;9.35;;;6.18;;
69594;SDS011;56800;52.142;5.364;2023-04-01T20:14:51;9.43;;;6.05;;
69594;SDS011;56800;52.142;5.364;2023-04-01T20:22:28;9.70;;;6.57;;
69594;SDS011;56800;52.142;5.364;2023-04-01T20:25:13;10.30;;;6.43;;
69594;SDS011;56800;52.142;5.364;2023-04-01T20:27:49;12.73;;;6.85;;
69594;SDS011;56800;52.142;5.364;2023-04-01T20:39:11;9.83;;;6.43;;
69594;SDS011;56800;52.142;5.364;2023-04-01T20:45:27;9.60;;;6.80;;
69594;SDS011;56800;52.142;5.364;2023-04-01T20:53:16;9.13;;;6.57;;
69594;SDS011;56800;52.142;5.364;2023-04-01T20:58:51;8.65;;;5.60;;
69594;SDS011;56800;52.142;5.364;2023-04-01T21:01:51;7.72;;;5.82;;
69594;SDS011;56800;52.142;5.364;2023-04-01T21:04:37;7.68;;;5.90;;
69594;SDS011;56800;52.142;5.364;2023-04-01T21:10:20;9.40;;;5.57;;
69594;SDS011;56800;52.142;5.364;2023-04-01T21:16:31;7.53;;;5.55;;
69594;SDS011;56800;52.142;5.364;2023-04-01T21:22:11;8.17;;;5.63;;
69594;SDS011;56800;52.142;5.364;2023-04-01T21:30:54;8.25;;;6.13;;
69594;SDS011;56800;52.142;5.364;2023-04-01T21:33:46;11.13;;;6.30;;
69594;SDS011;56800;52.142;5.364;2023-04-01T21:42:13;11.70;;;6.95;;
69594;SDS011;56800;52.142;5.364;2023-04-01T22:01:57;8.90;;;6.55;;
69594;SDS011;56800;52.142;5.364;2023-04-01T22:07:20;9.75;;;6.60;;
69594;SDS011;56800;52.142;5.364;2023-04-01T22:18:42;9.07;;;6.00;;
69594;SDS011;56800;52.142;5.364;2023-04-01T22:24:10;8.30;;;6.10;;
69594;SDS011;56800;52.142;5.364;2023-04-01T22:32:23;10.83;;;7.00;;
69594;SDS011;56800;52.142;5.364;2023-04-01T22:40:40;9.13;;;6.20;;
69594;SDS011;56800;52.142;5.364;2023-04-01T22:43:16;12.27;;;6.70;;
69594;SDS011;56800;52.142;5.364;2023-04-01T22:46:01;10.80;;;6.70;;
69594;SDS011;56800;52.142;5.364;2023-04-01T22:49:23;10.65;;;6.75;;
69594;SDS011;56800;52.142;5.364;2023-04-01T22:51:48;11.38;;;7.22;;
69594;SDS011;56800;52.142;5.364;2023-04-01T22:54:34;10.13;;;7.32;;
69594;SDS011;56800;52.142;5.364;2023-04-01T22:57:14;11.82;;;6.95;;
69594;SDS011;56800;52.142;5.364;2023-04-01T23:00:04;13.40;;;7.27;;
69594;SDS011;56800;52.142;5.364;2023-04-01T23:02:36;11.80;;;7.30;;
69594;SDS011;56800;52.142;5.364;2023-04-01T23:05:05;13.30;;;8.20;;
69594;SDS011;56800;52.142;5.364;2023-04-01T23:07:44;11.90;;;7.75;;
69594;SDS011;56800;52.142;5.364;2023-04-01T23:10:24;16.20;;;8.52;;
69594;SDS011;56800;52.142;5.364;2023-04-01T23:12:53;14.10;;;7.67;;
69594;SDS011;56800;52.142;5.364;2023-04-01T23:15:22;12.38;;;8.10;;
69594;SDS011;56800;52.142;5.364;2023-04-01T23:18:00;14.00;;;8.38;;
69594;SDS011;56800;52.142;5.364;2023-04-01T23:20:56;12.75;;;7.90;;
69594;SDS011;56800;52.142;5.364;2023-04-01T23:28:48;19.35;;;8.38;;
69594;SDS011;56800;52.142;5.364;2023-04-01T23:34:44;15.85;;;8.00;;
69594;SDS011;56800;52.142;5.364;2023-04-01T23:36:53;17.10;;;8.38;;
69594;SDS011;56800;52.142;5.364;2023-04-01T23:39:24;12.33;;;8.23;;
69594;SDS011;56800;52.142;5.364;2023-04-01T23:41:53;14.38;;;8.30;;
69594;SDS011;56800;52.142;5.364;2023-04-01T23:44:23;15.30;;;8.90;;
69594;SDS011;56800;52.142;5.364;2023-04-01T23:46:51;14.85;;;8.65;;
69594;SDS011;56800;52.142;5.364;2023-04-01T23:49:21;20.52;;;9.45;;
69594;SDS011;56800;52.142;5.364;2023-04-01T23:52:11;15.80;;;8.47;;
69594;SDS011;56800;52.142;5.364;2023-04-01T23:57:40;16.75;;;9.30;;
